Time;durP1;ratioP1;P1;durP2;ratioP2;P2;SDS_P1;SDS_P2;PMS_P1;PMS_P2;Temp;Humidity;BMP_temperature;BMP_pressure;BME280_temperature;BME280_humidity;BME280_pressure;Samples;Min_cycle;Max_cycle;Signal;HPM_P1;HPM_P2
2022/05/20 04:22:38;;;;;;;9.57;5.85;;;;;;;16.61;100.00;100619.16;5088747;28;20171;-76
2022/05/20 04:25:05;;;;;;;10.15;5.95;;;;;;;16.61;100.00;100620.00;5089142;28;20037;-76
2022/05/20 04:27:30;;;;;;;7.97;4.97;;;;;;;16.61;100.00;100619.16;5087769;28;20048;-75
2022/05/20 04:29:57;;;;;;;7.97;5.95;;;;;;;16.64;100.00;100627.69;5089095;28;20039;-75
2022/05/20 04:32:22;;;;;;;14.68;6.82;;;;;;;16.67;100.00;100623.75;5088656;28;20036;-75
2022/05/20 04:34:48;;;;;;;14.15;7.68;;;;;;;16.66;100.00;100614.00;5089836;28;20036;-77
2022/05/20 04:37:14;;;;;;;11.02;6.43;;;;;;;16.73;100.00;100617.56;5088925;28;20397;-76
2022/05/20 04:39:40;;;;;;;11.45;6.13;;;;;;;16.77;100.00;100618.84;5088844;28;20089;-76
2022/05/20 04:47:38;;;;;;;8.32;5.63;;;;;;;16.91;100.00;100609.75;5088726;28;20117;-76
2022/05/20 04:50:06;;;;;;;11.55;7.13;;;;;;;16.92;100.00;100621.31;5088706;28;20024;-76
2022/05/20 04:52:31;;;;;;;11.80;6.10;;;;;;;16.95;100.00;100619.06;5088379;28;20037;-76
2022/05/20 04:54:57;;;;;;;11.20;5.53;;;;;;;16.99;100.00;100630.22;5088604;28;20146;-76
2022/05/20 04:57:41;;;;;;;12.77;5.90;;;;;;;17.09;100.00;100633.34;5089184;28;20040;-76
2022/05/20 05:00:12;;;;;;;12.48;5.40;;;;;;;17.17;100.00;100629.63;5088272;28;20485;-77
2022/05/20 05:02:39;;;;;;;9.77;5.88;;;;;;;17.29;100.00;100633.34;5087268;28;20159;-76
2022/05/20 05:05:06;;;;;;;10.25;5.60;;;;;;;17.35;100.00;100638.75;5088506;28;20040;-76
2022/05/20 05:07:35;;;;;;;;;;;;;;;17.41;100.00;100637.09;5088582;28;20044;-76
2022/05/20 05:10:01;;;;;;;9.85;6.07;;;;;;;17.48;100.00;100639.78;5087109;28;19999;-76
2022/05/20 05:12:27;;;;;;;11.20;7.05;;;;;;;17.51;99.93;100639.34;5087921;28;20033;-76
2022/05/20 05:14:53;;;;;;;9.13;6.30;;;;;;;17.62;99.19;100639.53;5088319;28;20047;-76
2022/05/20 05:20:18;;;;;;;11.52;7.13;;;;;;;17.85;98.34;100657.94;5088069;28;20400;-75
2022/05/20 05:22:43;;;;;;;11.88;5.68;;;;;;;17.87;99.38;100653.19;5088298;28;20051;-77
2022/05/20 05:25:11;;;;;;;8.88;5.35;;;;;;;17.90;99.25;100663.53;5087959;28;20032;-76
2022/05/20 05:27:37;;;;;;;11.00;6.00;;;;;;;17.93;98.93;100656.06;5088345;28;20028;-76
2022/05/20 05:30:04;;;;;;;9.35;6.35;;;;;;;17.98;98.05;100657.09;5087901;28;20439;-75
2022/05/20 05:32:30;;;;;;;9.70;5.68;;;;;;;18.03;99.20;100659.97;5081269;28;20024;-76
2022/05/20 05:34:55;;;;;;;7.88;6.00;;;;;;;18.05;98.66;100657.06;5074484;28;20029;-76
2022/05/20 05:37:21;;;;;;;9.65;5.85;;;;;;;18.10;96.90;100658.09;5074303;28;20048;-76
2022/05/20 05:39:46;;;;;;;7.55;5.53;;;;;;;18.15;96.61;100658.28;5074681;28;20032;-77
2022/05/20 05:42:12;;;;;;;10.63;6.63;;;;;;;18.22;96.57;100643.97;5074643;28;20112;-77
2022/05/20 05:44:38;;;;;;;9.07;6.00;;;;;;;18.27;95.91;100657.63;5074483;28;20440;-77
2022/05/20 05:47:04;;;;;;;10.40;6.05;;;;;;;18.34;95.77;100661.13;5073488;28;20402;-77
2022/05/20 05:49:29;;;;;;;8.35;5.65;;;;;;;18.40;95.55;100662.97;5073755;28;20028;-77
2022/05/20 05:51:55;;;;;;;10.23;5.93;;;;;;;18.51;94.99;100658.75;5075253;28;20427;-78
2022/05/20 05:54:22;;;;;;;11.57;6.28;;;;;;;18.55;94.92;100652.72;5075791;28;20077;-78
2022/05/20 05:56:49;;;;;;;12.75;6.47;;;;;;;18.67;94.12;100656.41;5077376;28;20072;-79
2022/05/20 05:59:14;;;;;;;12.43;6.25;;;;;;;18.78;93.16;100664.84;5076409;28;20039;-75
2022/05/20 06:01:40;;;;;;;12.23;7.13;;;;;;;18.86;92.24;100656.53;5072404;28;20037;-75
2022/05/20 06:04:06;;;;;;;7.20;5.55;;;;;;;18.94;92.22;100656.25;5073694;28;20401;-75
2022/05/20 06:06:31;;;;;;;13.52;5.80;;;;;;;19.03;92.39;100660.31;5073904;28;20047;-75
2022/05/20 06:08:57;;;;;;;9.88;6.13;;;;;;;19.15;93.11;100672.09;5073653;28;20047;-72
2022/05/20 06:11:22;;;;;;;10.40;6.97;;;;;;;19.23;92.07;100669.13;5072168;28;20029;-71
2022/05/20 06:13:49;;;;;;;11.32;7.75;;;;;;;19.33;91.13;100667.81;5073276;28;20116;-72
2022/05/20 06:16:19;;;;;;;12.40;8.38;;;;;;;19.37;90.40;100664.44;5073477;28;20036;-72
2022/05/20 06:18:45;;;;;;;16.02;8.55;;;;;;;19.45;89.62;100672.25;5073520;28;20400;-72
2022/05/20 06:21:10;;;;;;;14.07;8.43;;;;;;;19.48;89.37;100661.00;5072062;28;20037;-72
2022/05/20 06:23:36;;;;;;;16.67;8.13;;;;;;;19.58;89.07;100665.13;5071932;28;20115;-76
2022/05/20 06:26:01;;;;;;;12.00;8.32;;;;;;;19.62;88.85;100664.44;5073304;28;20097;-74
2022/05/20 06:28:27;;;;;;;12.10;7.82;;;;;;;19.66;87.85;100662.94;5073342;28;20037;-74
2022/05/20 06:30:52;;;;;;;12.93;7.88;;;;;;;19.72;88.14;100655.84;5073249;28;20393;-76
2022/05/20 06:33:18;;;;;;;13.02;8.18;;;;;;;19.82;88.13;100656.13;5072922;28;20040;-76
2022/05/20 06:41:11;;;;;;;15.48;8.93;;;;;;;20.03;85.38;100658.41;5071738;28;20051;-74
2022/05/20 06:43:37;;;;;;;16.30;8.80;;;;;;;20.11;85.69;100661.88;5070796;28;20127;-72
2022/05/20 06:46:04;;;;;;;15.02;9.10;;;;;;;20.13;84.08;100663.28;5072454;28;20040;-73
2022/05/20 06:48:38;;;;;;;13.85;8.68;;;;;;;20.21;83.91;100664.84;5071652;28;20040;-72
2022/05/20 06:51:06;;;;;;;13.77;7.97;;;;;;;20.28;83.91;100657.50;5072814;28;20417;-72
2022/05/20 06:53:31;;;;;;;;;;;;;;;20.42;84.38;100663.56;5071647;28;20040;-72
2022/05/20 06:55:57;;;;;;;13.68;8.05;;;;;;;20.45;85.05;100666.66;5072589;28;19920;-76
2022/05/20 06:58:23;;;;;;;11.88;7.50;;;;;;;20.58;83.62;100661.06;5072644;28;20107;-74
2022/05/20 07:00:48;;;;;;;12.43;7.72;;;;;;;20.67;83.45;100668.88;5071235;28;20041;-75
2022/05/20 07:03:14;;;;;;;10.35;7.60;;;;;;;20.75;82.87;100663.97;5072178;28;20124;-73
2022/05/20 07:05:39;;;;;;;15.48;7.85;;;;;;;20.90;83.38;100657.31;5072330;28;20033;-73
2022/05/20 07:08:05;;;;;;;18.98;9.43;;;;;;;20.95;82.50;100663.69;5071144;28;20158;-75
2022/05/20 07:10:31;;;;;;;13.07;7.72;;;;;;;21.05;82.10;100653.09;5072348;28;20093;-73
2022/05/20 07:12:56;;;;;;;11.93;8.10;;;;;;;21.17;80.24;100665.84;5072149;28;20036;-72
2022/05/20 07:15:22;;;;;;;14.20;8.05;;;;;;;21.24;80.24;100655.72;5070996;28;20075;-75
2022/05/20 07:17:48;;;;;;;14.13;8.00;;;;;;;21.30;79.55;100652.13;5070963;28;20040;-73
2022/05/20 07:20:14;;;;;;;12.82;8.15;;;;;;;21.42;77.84;100646.72;5072034;28;20039;-73
2022/05/20 07:22:39;;;;;;;11.82;7.45;;;;;;;21.48;79.00;100649.31;5071864;28;20037;-72
2022/05/20 07:25:05;;;;;;;10.60;8.02;;;;;;;21.55;79.03;100649.19;5072046;28;20486;-75
2022/05/20 07:27:31;;;;;;;11.98;7.53;;;;;;;21.61;77.39;100637.41;5072038;28;20048;-75
2022/05/20 07:29:56;;;;;;;11.30;7.43;;;;;;;21.72;77.47;100639.28;5072104;28;20032;-74
2022/05/20 07:32:22;;;;;;;14.50;7.93;;;;;;;21.81;77.85;100640.56;5071632;28;20032;-73
2022/05/20 07:34:48;;;;;;;12.57;8.05;;;;;;;21.95;77.39;100641.13;5070619;28;20448;-74
2022/05/20 07:37:13;;;;;;;12.68;8.02;;;;;;;22.01;76.73;100642.06;5071812;28;20124;-74
2022/05/20 07:39:39;;;;;;;14.13;8.20;;;;;;;22.07;76.51;100646.53;5071836;28;20389;-75
2022/05/20 07:42:05;;;;;;;11.05;7.65;;;;;;;22.25;75.98;100643.69;5071796;28;20039;-74
2022/05/20 07:44:31;;;;;;;12.85;7.65;;;;;;;22.41;75.43;100631.25;5070394;28;20485;-73
2022/05/20 07:46:56;;;;;;;13.73;7.70;;;;;;;22.52;74.86;100626.84;5071731;28;20040;-74
2022/05/20 07:49:21;;;;;;;13.63;7.68;;;;;;;22.50;72.93;100629.81;5071746;28;20047;-72
2022/05/20 07:51:50;;;;;;;12.07;7.55;;;;;;;22.60;72.58;100624.56;5071443;28;20025;-73
2022/05/20 07:54:22;;;;;;;14.00;7.55;;;;;;;22.58;72.41;100625.88;5071782;28;20060;-73
2022/05/20 07:56:55;;;;;;;12.00;7.70;;;;;;;22.87;69.09;100616.66;5071334;28;20101;-73
2022/05/20 07:59:45;;;;;;;12.98;7.80;;;;;;;23.07;67.74;100618.88;5070511;28;20045;-75
2022/05/20 08:02:13;;;;;;;13.48;7.38;;;;;;;23.25;69.09;100623.25;5071288;28;20067;-75
2022/05/20 08:04:58;;;;;;;10.13;6.97;;;;;;;23.42;67.53;100617.81;5071391;28;20088;-76
2022/05/20 08:07:28;;;;;;;8.80;6.72;;;;;;;23.51;67.71;100622.56;5070439;28;20075;-75
2022/05/20 08:09:54;;;;;;;10.43;7.22;;;;;;;23.65;66.58;100616.81;5071693;28;20040;-75
2022/05/20 08:12:21;;;;;;;11.02;7.10;;;;;;;23.81;66.46;100605.91;5071329;28;20028;-76
2022/05/20 08:14:48;;;;;;;10.07;7.40;;;;;;;24.05;65.50;100614.63;5071688;28;20151;-75
2022/05/20 08:17:14;;;;;;;13.55;6.78;;;;;;;24.14;63.75;100606.03;5071541;28;20039;-75
2022/05/20 08:19:40;;;;;;;9.60;6.68;;;;;;;24.28;63.97;100605.38;5071457;28;20040;-75
2022/05/20 08:22:06;;;;;;;13.45;7.55;;;;;;;24.44;62.85;100603.66;5071011;28;20508;-76
2022/05/20 08:24:32;;;;;;;10.25;6.95;;;;;;;24.56;63.48;100604.34;5071480;28;20413;-76
2022/05/20 08:26:58;;;;;;;13.50;7.18;;;;;;;24.69;62.56;100591.38;5071203;28;20676;-75
2022/05/20 08:29:24;;;;;;;9.68;6.22;;;;;;;24.82;65.47;100594.50;5071309;28;20099;-76
2022/05/20 08:31:50;;;;;;;8.48;6.72;;;;;;;25.02;63.54;100601.19;5069658;28;20070;-77
2022/05/20 08:34:16;;;;;;;8.38;6.45;;;;;;;25.05;64.04;100598.81;5071376;28;20116;-76
2022/05/20 08:36:42;;;;;;;12.65;6.78;;;;;;;25.12;64.08;100601.31;5071127;28;20563;-76
2022/05/20 08:39:12;;;;;;;8.20;6.57;;;;;;;25.24;60.33;100601.97;5071331;28;20024;-75
2022/05/20 08:41:51;;;;;;;7.32;6.40;;;;;;;25.36;62.42;100604.47;5070962;28;20041;-76
2022/05/20 08:44:19;;;;;;;12.88;6.68;;;;;;;25.34;60.59;100588.38;5071302;28;20032;-75
2022/05/20 08:47:05;;;;;;;8.20;6.97;;;;;;;25.59;60.91;100582.28;5070381;28;20090;-74
2022/05/20 08:49:31;;;;;;;9.30;7.03;;;;;;;25.65;61.02;100581.22;5070329;28;20033;-75
2022/05/20 08:51:57;;;;;;;11.18;6.38;;;;;;;25.91;61.92;100586.81;5069464;28;20040;-75
2022/05/20 08:54:23;;;;;;;8.18;6.70;;;;;;;25.96;62.48;100579.47;5070777;28;20028;-76
2022/05/20 08:56:49;;;;;;;9.60;7.05;;;;;;;25.97;60.88;100574.84;5070359;28;20029;-74
2022/05/20 08:59:20;;;;;;;10.63;7.00;;;;;;;26.08;59.94;100571.06;5071090;28;20045;-73
2022/05/20 09:01:49;;;;;;;10.32;6.57;;;;;;;26.18;60.01;100571.09;5070554;28;20058;-74
2022/05/20 09:04:18;;;;;;;14.82;7.20;;;;;;;26.17;61.44;100574.91;5070926;28;20024;-74
2022/05/20 09:07:08;;;;;;;9.48;6.45;;;;;;;26.36;58.77;100561.56;5070824;28;20382;-74
2022/05/20 09:09:44;;;;;;;9.80;6.28;;;;;;;26.59;58.50;100552.06;5074702;28;20047;-75
2022/05/20 09:12:23;;;;;;;9.98;6.80;;;;;;;26.69;58.47;100559.47;5074380;28;20481;-73
2022/05/20 09:17:41;;;;;;;9.95;6.13;;;;;;;27.03;55.35;100551.53;5074364;28;20504;-74
2022/05/20 09:20:10;;;;;;;7.82;5.45;;;;;;;27.33;56.38;100552.59;5074487;28;20110;-73
2022/05/20 09:22:38;;;;;;;10.15;5.70;;;;;;;27.47;53.53;100551.75;5074022;28;20051;-75
2022/05/20 09:25:13;;;;;;;16.52;6.53;;;;;;;27.63;52.94;100547.03;5074483;28;20024;-75
2022/05/20 09:27:39;;;;;;;6.85;5.80;;;;;;;27.74;53.11;100540.47;5072796;28;20036;-75
2022/05/20 09:30:13;;;;;;;10.33;5.73;;;;;;;28.11;51.91;100539.19;5073053;28;20075;-76
2022/05/20 09:32:45;;;;;;;8.77;5.65;;;;;;;28.15;51.50;100532.03;5073899;28;20768;-74
2022/05/20 09:35:17;;;;;;;7.13;5.68;;;;;;;28.34;50.57;100510.31;5073175;28;20405;-75
2022/05/20 09:37:43;;;;;;;10.23;5.60;;;;;;;28.59;51.93;100518.31;5074245;28;20123;-75
2022/05/20 09:40:37;;;;;;;8.75;5.80;;;;;;;28.55;48.28;100509.03;5074352;28;20343;-74
2022/05/20 09:43:05;;;;;;;10.00;5.70;;;;;;;28.79;49.75;100503.63;5072596;28;20123;-74
2022/05/20 09:45:45;;;;;;;8.10;5.90;;;;;;;29.16;49.94;100504.94;5074010;28;20127;-75
2022/05/20 09:48:19;;;;;;;13.23;5.68;;;;;;;29.43;47.46;100509.84;5074078;28;20112;-76
2022/05/20 09:51:02;;;;;;;7.40;5.32;;;;;;;29.61;47.41;100506.38;5074596;28;20085;-76
2022/05/20 09:53:37;;;;;;;8.57;4.85;;;;;;;30.08;48.17;100510.13;5074501;28;20483;-76
2022/05/20 09:56:11;;;;;;;7.22;5.13;;;;;;;30.38;45.80;100500.63;5074447;28;20042;-76
2022/05/20 09:58:38;;;;;;;6.30;5.20;;;;;;;30.58;44.22;100498.66;5074086;28;20481;-76
2022/05/20 10:01:10;;;;;;;8.80;4.80;;;;;;;30.54;43.38;100515.75;5073983;28;20567;-76
2022/05/20 10:03:40;;;;;;;7.88;5.65;;;;;;;30.88;43.26;100514.66;5073797;28;20066;-77
2022/05/20 10:06:20;;;;;;;8.80;5.20;;;;;;;31.14;42.56;100498.50;5072698;28;20661;-75
2022/05/20 10:08:58;;;;;;;7.50;4.70;;;;;;;31.34;40.27;100500.06;5073875;28;20036;-76
2022/05/20 10:11:38;;;;;;;9.50;5.20;;;;;;;31.61;41.55;100489.03;5073751;28;20481;-75
2022/05/20 10:14:11;;;;;;;6.68;4.78;;;;;;;31.72;42.99;100495.16;5073655;28;20390;-76
2022/05/20 10:16:42;;;;;;;8.82;4.63;;;;;;;31.82;41.62;100489.47;5073644;28;20366;-76
2022/05/20 10:19:50;;;;;;;7.43;4.55;;;;;;;32.07;40.49;100485.28;5073413;28;20083;-76
2022/05/20 10:22:39;;;;;;;7.82;4.85;;;;;;;31.97;37.00;100471.78;5052758;28;20060;-75
2022/05/20 10:25:31;;;;;;;10.88;4.70;;;;;;;32.10;38.96;100475.59;5073618;28;20514;-76
2022/05/20 10:27:59;;;;;;;6.35;4.53;;;;;;;32.18;37.79;100472.09;5073956;28;20094;-75
2022/05/20 10:33:36;;;;;;;8.40;4.55;;;;;;;31.92;37.80;100460.88;5072731;28;20044;-75
2022/05/20 10:36:38;;;;;;;9.25;4.25;;;;;;;32.18;39.19;100471.28;5075249;28;20056;-77
2022/05/20 10:39:31;;;;;;;5.28;4.32;;;;;;;32.37;38.31;100463.69;5038350;28;20044;-75
2022/05/20 10:42:30;;;;;;;9.07;4.50;;;;;;;32.31;39.21;100456.63;5073595;28;20032;-75
2022/05/20 10:50:59;;;;;;;7.40;4.35;;;;;;;31.52;36.57;100419.34;5072990;28;20071;-76
2022/05/20 10:54:04;;;;;;;11.02;4.65;;;;;;;31.97;36.35;100402.09;5071398;28;20079;-75
2022/05/20 10:57:01;;;;;;;9.13;4.47;;;;;;;32.00;38.80;100402.28;5030615;28;20079;-74
2022/05/20 10:59:38;;;;;;;7.20;4.05;;;;;;;32.58;34.57;100392.28;5007870;28;20045;-77
2022/05/20 11:02:04;;;;;;;8.02;3.90;;;;;;;32.74;35.53;100381.69;5062090;28;20066;-75
2022/05/20 11:04:54;;;;;;;10.87;3.77;;;;;;;33.13;38.06;100367.88;5054864;28;20525;-76
2022/05/20 11:07:38;;;;;;;7.03;3.47;;;;;;;33.09;29.78;100344.00;5072848;28;20089;-78
2022/05/20 11:10:15;;;;;;;6.28;3.53;;;;;;;33.28;31.30;100329.91;5073031;28;20361;-77
2022/05/20 11:12:53;;;;;;;9.52;3.92;;;;;;;33.69;30.54;100310.13;5072557;28;20040;-76
2022/05/20 11:15:32;;;;;;;5.88;3.30;;;;;;;34.04;28.97;100296.28;5072480;28;20446;-77
2022/05/20 11:18:08;;;;;;;5.38;3.17;;;;;;;33.85;28.87;100300.22;5072421;28;20493;-76
2022/05/20 11:20:51;;;;;;;6.67;3.90;;;;;;;33.94;29.25;100289.97;5072401;28;20024;-76
2022/05/20 11:23:26;;;;;;;8.00;3.75;;;;;;;34.12;28.96;100284.41;5070815;28;20357;-76
2022/05/20 11:26:10;;;;;;;8.18;3.50;;;;;;;34.20;29.00;100276.06;5072217;28;20040;-76
2022/05/20 11:28:54;;;;;;;6.47;3.45;;;;;;;34.58;29.25;100272.53;5072227;28;20375;-77
2022/05/20 11:31:48;;;;;;;8.10;3.95;;;;;;;34.28;28.42;100269.69;5071771;28;20059;-76
2022/05/20 11:34:38;;;;;;;7.28;3.20;;;;;;;33.92;29.89;100283.16;5052488;28;20402;-76
2022/05/20 11:37:09;;;;;;;7.18;3.78;;;;;;;33.62;29.00;100271.97;5070797;28;20028;-78
2022/05/20 11:40:11;;;;;;;6.75;3.90;;;;;;;33.57;29.72;100269.38;5073172;28;20054;-76
2022/05/20 11:42:48;;;;;;;6.57;4.10;;;;;;;33.57;28.96;100261.09;5063855;28;20053;-74
2022/05/20 11:45:32;;;;;;;5.18;3.75;;;;;;;33.43;29.28;100266.78;5071725;28;20725;-75
2022/05/20 11:48:32;;;;;;;5.45;3.33;;;;;;;33.73;27.99;100253.13;5071898;28;20044;-76
2022/05/20 11:51:40;;;;;;;6.40;3.30;;;;;;;34.49;28.25;100231.06;5071719;28;20032;-75
2022/05/20 11:54:10;;;;;;;8.85;4.03;;;;;;;34.83;27.82;100243.09;5050246;28;20493;-74
2022/05/20 11:56:53;;;;;;;5.32;3.50;;;;;;;34.31;28.76;100243.38;5071629;28;20085;-76
2022/05/20 11:59:34;;;;;;;7.65;3.47;;;;;;;34.68;28.20;100243.66;5071866;28;20127;-75
2022/05/20 12:02:05;;;;;;;8.15;3.50;;;;;;;34.61;29.25;100232.31;5071258;28;20028;-75
2022/05/20 12:04:35;;;;;;;6.57;3.33;;;;;;;34.65;27.47;100222.22;5071785;28;20101;-75
2022/05/20 12:07:06;;;;;;;7.65;3.67;;;;;;;34.79;26.75;100218.06;5070261;28;20139;-75
2022/05/20 12:09:47;;;;;;;6.22;3.22;;;;;;;34.95;26.85;100206.41;5071667;28;20505;-75
2022/05/20 12:12:25;;;;;;;5.03;3.40;;;;;;;34.92;26.06;100198.78;5071825;28;20036;-75
2022/05/20 12:14:54;;;;;;;5.72;3.60;;;;;;;35.19;26.74;100195.47;5071129;28;20500;-73
2022/05/20 12:17:39;;;;;;;7.65;3.53;;;;;;;35.49;26.93;100198.97;5070790;28;20059;-75
2022/05/20 12:26:07;;;;;;;8.43;3.70;;;;;;;35.21;26.22;100179.34;5071750;28;20453;-74
2022/05/20 12:28:39;;;;;;;6.97;3.70;;;;;;;35.19;27.93;100176.09;5071275;28;20032;-74
2022/05/20 12:31:12;;;;;;;6.10;3.55;;;;;;;35.42;27.39;100165.47;5071370;28;20039;-75
2022/05/20 12:34:03;;;;;;;6.70;3.58;;;;;;;35.64;26.26;100164.25;5071019;28;20465;-74
2022/05/20 12:36:29;;;;;;;7.20;3.72;;;;;;;35.79;27.38;100160.81;5071155;28;20596;-75
2022/05/20 12:39:06;;;;;;;8.67;3.67;;;;;;;35.91;25.25;100148.97;5071398;28;20033;-75
2022/05/20 12:41:42;;;;;;;5.85;3.20;;;;;;;35.39;25.25;100145.94;5070942;28;20044;-75
2022/05/20 12:44:16;;;;;;;6.55;3.40;;;;;;;35.99;25.18;100136.13;5073332;28;20040;-74
2022/05/20 12:46:42;;;;;;;8.38;3.95;;;;;;;36.10;25.33;100129.78;5075161;28;20062;-77
2022/05/20 12:49:08;;;;;;;10.83;3.50;;;;;;;35.98;23.97;100124.25;5075172;28;20051;-75
2022/05/20 12:51:44;;;;;;;10.57;3.10;;;;;;;35.60;25.26;100130.06;5056901;28;20193;-74
2022/05/20 12:54:21;;;;;;;9.93;3.85;;;;;;;35.39;25.55;100118.25;5073892;28;20045;-79
2022/05/20 12:56:51;;;;;;;62.08;30.48;;;;;;;35.56;33.40;100116.13;5076550;28;20505;-74
2022/05/20 12:59:22;;;;;;;7.85;3.15;;;;;;;35.43;26.86;100124.75;5075309;28;20418;-75
2022/05/20 13:01:53;;;;;;;7.15;3.63;;;;;;;35.56;25.96;100132.75;5073855;28;20113;-74
2022/05/20 13:04:20;;;;;;;5.43;3.40;;;;;;;35.20;26.83;100138.13;5057474;28;20039;-75
2022/05/20 13:06:48;;;;;;;8.55;3.38;;;;;;;34.73;27.37;100141.94;5075423;28;20025;-75
2022/05/20 13:09:25;;;;;;;5.70;3.10;;;;;;;34.35;27.76;100152.28;5075040;28;20382;-76
2022/05/20 13:11:51;;;;;;;5.75;3.55;;;;;;;34.25;28.68;100168.09;5074705;28;20048;-74
2022/05/20 13:14:20;;;;;;;7.67;3.83;;;;;;;33.73;29.16;100193.16;5074894;28;20393;-75
2022/05/20 13:16:55;;;;;;;9.73;4.10;;;;;;;33.67;30.11;100200.00;5057302;28;20470;-75
2022/05/20 13:19:50;;;;;;;9.05;4.00;;;;;;;33.37;31.04;100198.25;5075039;28;20032;-75
2022/05/20 13:22:21;;;;;;;6.63;4.20;;;;;;;33.30;31.98;100167.56;5070043;28;20066;-75
2022/05/20 13:24:54;;;;;;;5.32;3.78;;;;;;;33.30;31.18;100153.75;5075062;28;20116;-75
2022/05/20 13:27:21;;;;;;;6.25;3.42;;;;;;;33.35;31.70;100124.06;5076636;28;20040;-77
2022/05/20 13:29:48;;;;;;;6.75;3.75;;;;;;;33.21;32.59;100104.94;5075491;28;20183;-76
2022/05/20 13:32:27;;;;;;;5.03;3.67;;;;;;;33.44;30.65;100088.16;5074887;28;20037;-77
2022/05/20 13:34:54;;;;;;;7.35;3.70;;;;;;;33.27;31.51;100071.66;5076226;28;20090;-77
2022/05/20 13:37:30;;;;;;;6.68;3.90;;;;;;;32.86;31.97;100054.50;5076541;28;20037;-77
2022/05/20 13:40:05;;;;;;;6.07;3.72;;;;;;;32.75;31.52;100052.41;5076576;28;20044;-77
2022/05/20 13:42:32;;;;;;;7.88;4.00;;;;;;;32.47;33.16;100062.94;5075634;28;20040;-76
2022/05/20 13:45:13;;;;;;;6.55;4.05;;;;;;;32.39;32.49;100065.38;5075363;28;20064;-77
2022/05/20 13:50:24;;;;;;;10.68;3.75;;;;;;;31.86;33.81;100104.13;5074649;28;20055;-76
2022/05/20 13:52:50;;;;;;;6.55;3.45;;;;;;;31.67;35.28;100123.59;5074166;28;20041;-76
2022/05/20 13:55:17;;;;;;;6.27;3.30;;;;;;;31.38;34.74;100142.56;5074557;28;20037;-76
2022/05/20 13:57:48;;;;;;;5.85;3.88;;;;;;;31.17;35.58;100145.81;5074166;28;20124;-76
2022/05/20 14:00:20;;;;;;;6.40;4.00;;;;;;;31.04;36.06;100133.75;5074063;28;20036;-76
2022/05/20 14:02:52;;;;;;;7.15;3.97;;;;;;;31.00;35.94;100140.97;5073835;28;20405;-76
2022/05/20 14:05:24;;;;;;;8.25;3.63;;;;;;;30.79;35.92;100137.09;5073727;28;20036;-75
2022/05/20 14:07:54;;;;;;;6.78;3.67;;;;;;;30.71;36.41;100130.41;5073830;28;20110;-76
2022/05/20 14:10:32;;;;;;;9.05;4.45;;;;;;;30.53;36.87;100151.38;5073571;28;20028;-75
2022/05/20 14:13:08;;;;;;;7.50;4.10;;;;;;;30.45;36.67;100179.59;5072279;28;20040;-77
2022/05/20 14:15:48;;;;;;;7.32;3.88;;;;;;;30.41;37.08;100205.22;5074172;28;20075;-76
2022/05/20 14:18:33;;;;;;;8.38;3.50;;;;;;;30.29;36.67;100215.91;5075371;28;20457;-77
2022/05/20 14:21:05;;;;;;;6.75;4.50;;;;;;;30.21;36.22;100215.50;5075182;28;20057;-76
2022/05/20 14:23:38;;;;;;;7.85;3.90;;;;;;;29.83;37.57;100280.69;5073816;28;20123;-76
2022/05/20 14:26:12;;;;;;;16.13;4.38;;;;;;;28.95;41.34;100334.34;5073558;28;20032;-77
2022/05/20 14:28:45;;;;;;;20.33;4.57;;;;;;;28.07;45.63;100357.41;5073553;28;20033;-77
2022/05/20 14:31:28;;;;;;;16.27;4.80;;;;;;;27.50;49.85;100356.97;5073527;28;20501;-76
2022/05/20 14:34:20;;;;;;;14.98;4.07;;;;;;;27.44;51.29;100291.63;5073613;28;20059;-76
2022/05/20 14:36:47;;;;;;;11.98;4.50;;;;;;;26.51;58.62;100310.34;5069283;28;20040;-75
2022/05/20 14:39:21;;;;;;;11.23;4.57;;;;;;;26.33;59.78;100299.97;5073074;28;20037;-75
2022/05/20 14:42:30;;;;;;;9.20;4.78;;;;;;;26.43;61.27;100272.69;5071619;28;20025;-76
2022/05/20 14:45:00;;;;;;;11.68;4.45;;;;;;;26.52;60.68;100243.72;5065908;28;20643;-75
2022/05/20 14:47:37;;;;;;;8.20;4.00;;;;;;;26.81;58.22;100226.66;5072865;28;20393;-74
2022/05/20 14:50:23;;;;;;;8.43;3.47;;;;;;;26.65;59.53;100204.06;5071701;28;20473;-76
2022/05/20 14:53:01;;;;;;;9.05;4.13;;;;;;;27.03;57.91;100186.06;5072277;28;20090;-77
2022/05/20 14:55:48;;;;;;;6.88;3.60;;;;;;;26.82;58.51;100165.44;5073757;28;20064;-75
2022/05/20 14:58:30;;;;;;;9.93;4.07;;;;;;;26.69;58.02;100158.69;5072703;28;20040;-78
2022/05/20 15:01:04;;;;;;;7.25;4.72;;;;;;;26.48;62.12;100138.06;5072901;28;20119;-75
2022/05/20 15:03:35;;;;;;;7.65;4.40;;;;;;;25.88;63.26;100137.97;5071165;28;20040;-76
2022/05/20 15:06:01;;;;;;;9.55;4.97;;;;;;;25.69;66.17;100139.63;5071955;28;20085;-76
2022/05/20 15:08:33;;;;;;;11.45;4.57;;;;;;;25.54;65.99;100150.56;5071345;28;20116;-73
2022/05/20 15:11:05;;;;;;;7.82;4.70;;;;;;;25.47;66.97;100156.28;5072498;28;20036;-74
2022/05/20 15:13:32;;;;;;;9.63;4.38;;;;;;;25.39;67.58;100138.56;5070786;28;20121;-75
2022/05/20 15:15:58;;;;;;;7.15;4.47;;;;;;;25.42;68.18;100162.56;5070942;28;20104;-73
2022/05/20 15:18:23;;;;;;;7.85;4.55;;;;;;;25.35;68.84;100186.56;5071565;28;20123;-75
2022/05/20 15:20:53;;;;;;;11.35;4.70;;;;;;;25.00;68.44;100217.28;5072776;28;20093;-75
2022/05/20 15:23:24;;;;;;;10.02;5.07;;;;;;;24.85;69.48;100244.50;5072210;28;20109;-72
2022/05/20 15:25:52;;;;;;;7.90;4.30;;;;;;;24.61;70.66;100249.56;5072090;28;20033;-72
2022/05/20 15:36:33;;;;;;;10.43;5.13;;;;;;;24.02;76.13;100170.88;5071917;28;20041;-71
2022/05/20 15:38:59;;;;;;;9.90;5.10;;;;;;;24.09;73.61;100171.44;5072002;28;20039;-72
2022/05/20 15:41:26;;;;;;;9.68;4.90;;;;;;;24.18;74.13;100174.47;5071897;28;20082;-71
2022/05/20 15:43:52;;;;;;;8.15;5.22;;;;;;;24.33;73.37;100163.69;5071836;28;20404;-72
2022/05/20 15:46:18;;;;;;;10.43;5.10;;;;;;;24.45;71.26;100150.69;5071786;28;20523;-72
2022/05/20 15:48:43;;;;;;;11.90;5.00;;;;;;;24.35;71.86;100128.88;5070623;28;20037;-72
2022/05/20 15:51:11;;;;;;;11.57;5.22;;;;;;;24.33;72.55;100092.91;5071823;28;20393;-72
2022/05/20 15:53:38;;;;;;;11.27;5.78;;;;;;;24.18;71.97;100095.56;5071408;28;20111;-72
2022/05/20 15:56:04;;;;;;;7.95;5.38;;;;;;;24.04;73.39;100030.75;5072065;28;20401;-72
2022/05/20 15:58:30;;;;;;;9.50;5.68;;;;;;;24.04;75.84;100030.75;5071934;28;20059;-72
2022/05/20 16:00:56;;;;;;;12.00;5.38;;;;;;;23.89;76.18;100057.91;5071665;28;20032;-71
2022/05/20 16:03:22;;;;;;;10.50;5.30;;;;;;;23.78;74.02;100038.00;5071284;28;20037;-73
2022/05/20 16:05:51;;;;;;;12.18;5.85;;;;;;;23.56;75.87;99937.56;5071605;28;20127;-76
2022/05/20 16:08:18;;;;;;;8.50;4.13;;;;;;;23.74;65.67;99930.06;5071823;28;20044;-72
2022/05/20 16:10:49;;;;;;;10.65;4.40;;;;;;;23.99;64.82;99959.19;5071566;28;20501;-72
2022/05/20 16:13:16;;;;;;;9.35;4.30;;;;;;;24.14;64.55;100012.84;5071210;28;20066;-72
2022/05/20 16:15:42;;;;;;;8.57;4.50;;;;;;;24.24;66.35;100037.34;5071619;28;20048;-72
2022/05/20 16:18:08;;;;;;;7.57;4.55;;;;;;;24.29;67.16;100031.94;5070059;28;20440;-72
2022/05/20 16:20:37;;;;;;;8.43;4.90;;;;;;;24.38;67.44;100043.13;5071306;28;20048;-72
2022/05/20 16:23:03;;;;;;;7.43;4.78;;;;;;;24.45;67.57;100020.03;5071201;28;20055;-72
2022/05/20 16:25:29;;;;;;;10.65;5.10;;;;;;;24.40;68.20;100011.84;5071239;28;20033;-72
2022/05/20 16:27:56;;;;;;;11.57;4.80;;;;;;;24.50;67.13;100011.03;5071664;28;20033;-73
2022/05/20 16:30:23;;;;;;;7.22;4.32;;;;;;;24.60;66.64;100011.06;5071287;28;20060;-73
2022/05/20 16:32:50;;;;;;;10.45;5.40;;;;;;;24.72;67.59;100005.34;5070889;28;20037;-73
2022/05/20 16:35:16;;;;;;;8.57;4.93;;;;;;;24.84;67.15;99997.69;5071233;28;20043;-72
2022/05/20 16:37:42;;;;;;;11.25;6.63;;;;;;;25.07;65.61;99988.19;5071225;28;20028;-73
2022/05/20 16:40:12;;;;;;;9.57;5.97;;;;;;;25.13;64.83;99981.63;5071205;28;20500;-73
2022/05/20 16:42:39;;;;;;;8.32;4.97;;;;;;;25.22;64.40;99979.97;5070900;28;20044;-73
2022/05/20 16:45:05;;;;;;;;;;;;;;;25.35;63.93;99997.63;5071603;28;20477;-73
2022/05/20 16:47:36;;;;;;;13.75;5.47;;;;;;;25.37;64.63;100000.94;5069727;28;19913;-73